Time;durP1;ratioP1;P1;durP2;ratioP2;P2;SDS_P1;SDS_P2;PMS_P1;PMS_P2;Temp;Humidity;BMP_temperature;BMP_pressure;BME280_temperature;BME280_humidity;BME280_pressure;Samples;Min_cycle;Max_cycle;Signal;HPM_P1;HPM_P2
2022/03/21 00:00:59;;;;;;;47.30;34.85;;;4.40;81.60;;;;;;4920660;29;20052;-70
2022/03/21 00:03:29;;;;;;;43.05;30.75;;;4.40;81.50;;;;;;4913839;29;20052;-71
2022/03/21 00:05:56;;;;;;;41.70;31.08;;;4.40;81.60;;;;;;4923573;29;20044;-71
2022/03/21 00:08:22;;;;;;;39.60;31.10;;;4.40;81.50;;;;;;4933123;29;20051;-71
2022/03/21 00:10:50;;;;;;;39.33;30.33;;;4.30;81.50;;;;;;4921551;29;20037;-71
2022/03/21 00:13:16;;;;;;;44.55;29.15;;;4.30;81.60;;;;;;4897098;29;20107;-71
2022/03/21 00:15:49;;;;;;;45.15;29.17;;;4.30;81.60;;;;;;4914227;29;20040;-71
2022/03/21 00:18:16;;;;;;;35.50;27.63;;;4.30;81.50;;;;;;4913453;29;20083;-71
2022/03/21 00:20:47;;;;;;;42.85;30.48;;;4.20;81.40;;;;;;4917694;29;20048;-71
2022/03/21 00:23:13;;;;;;;34.17;27.45;;;4.10;81.40;;;;;;4932652;29;20138;-71
2022/03/21 00:25:39;;;;;;;49.45;28.67;;;4.10;81.60;;;;;;4931317;29;20410;-71
2022/03/21 00:28:07;;;;;;;43.08;28.10;;;4.10;81.80;;;;;;4915524;29;20048;-71
2022/03/21 00:30:34;;;;;;;46.25;26.45;;;4.10;81.90;;;;;;4922667;29;20123;-71
2022/03/21 00:33:00;;;;;;;111.72;25.80;;;4.10;82.00;;;;;;4917195;29;20050;-71
2022/03/21 00:35:27;;;;;;;41.63;28.45;;;4.10;82.10;;;;;;4917320;29;20127;-71
2022/03/21 00:37:53;;;;;;;38.78;27.33;;;4.00;82.10;;;;;;4933471;29;20523;-71
2022/03/21 00:40:19;;;;;;;37.53;25.23;;;4.00;82.00;;;;;;4934069;29;20424;-71
2022/03/21 00:42:46;;;;;;;46.78;24.90;;;3.90;82.00;;;;;;4917698;29;20076;-71
2022/03/21 00:45:18;;;;;;;29.30;24.02;;;3.90;82.10;;;;;;4917325;29;20056;-71
2022/03/21 00:47:45;;;;;;;32.13;24.27;;;3.90;82.10;;;;;;4932298;29;20048;-71
2022/03/21 00:50:12;;;;;;;28.75;21.08;;;3.80;82.10;;;;;;4918016;29;20130;-71
2022/03/21 00:52:43;;;;;;;25.58;20.48;;;3.80;82.20;;;;;;4912031;29;20119;-71
2022/03/21 00:55:11;;;;;;;25.50;20.77;;;3.80;82.10;;;;;;4897812;29;20052;-71
2022/03/21 00:57:38;;;;;;;28.33;21.63;;;3.70;82.10;;;;;;4912469;29;20367;-71
2022/03/21 01:00:10;;;;;;;31.20;24.15;;;3.70;82.00;;;;;;4915968;29;20039;-71
2022/03/21 01:02:36;;;;;;;29.92;24.25;;;3.70;82.00;;;;;;4912890;29;20107;-71
2022/03/21 01:05:03;;;;;;;30.95;25.55;;;3.70;82.00;;;;;;4915241;29;20131;-71
2022/03/21 01:07:29;;;;;;;36.92;26.17;;;3.70;82.00;;;;;;4902423;29;20582;-71
2022/03/21 01:09:54;;;;;;;32.78;25.77;;;3.70;81.90;;;;;;4897999;29;20037;-71
2022/03/21 01:12:20;;;;;;;35.08;27.23;;;3.60;81.90;;;;;;4897780;29;20068;-71
2022/03/21 01:14:46;;;;;;;42.65;28.63;;;3.60;81.80;;;;;;4915240;29;20039;-71
2022/03/21 01:17:11;;;;;;;39.90;29.77;;;3.60;81.80;;;;;;4906702;29;20086;-71
2022/03/21 01:19:37;;;;;;;39.95;29.65;;;3.60;81.80;;;;;;4912183;29;20040;-71
2022/03/21 01:22:06;;;;;;;42.42;32.33;;;3.60;81.80;;;;;;4905022;29;20043;-71
2022/03/21 01:24:33;;;;;;;47.65;34.35;;;3.60;81.80;;;;;;4915581;29;20059;-71
2022/03/21 01:26:58;;;;;;;51.70;36.78;;;3.60;81.90;;;;;;4905787;29;20037;-71
2022/03/21 01:29:24;;;;;;;50.30;34.58;;;3.70;81.90;;;;;;4912173;29;20521;-71
2022/03/21 01:31:50;;;;;;;51.40;37.65;;;3.60;81.80;;;;;;4897480;29;20115;-71
2022/03/21 01:34:15;;;;;;;47.58;34.78;;;3.70;81.80;;;;;;4913138;29;20044;-71
2022/03/21 01:36:41;;;;;;;47.72;35.03;;;3.60;81.70;;;;;;4908038;29;20610;-71
2022/03/21 01:39:07;;;;;;;50.95;36.17;;;3.60;81.70;;;;;;4916649;29;20044;-71
2022/03/21 01:41:33;;;;;;;49.88;35.75;;;3.60;81.70;;;;;;4897296;29;20544;-71
2022/03/21 01:44:05;;;;;;;54.15;35.92;;;3.60;81.60;;;;;;4896800;29;20056;-71
2022/03/21 01:46:32;;;;;;;47.70;35.90;;;3.60;81.70;;;;;;4909991;29;20048;-71
2022/03/21 01:48:59;;;;;;;46.67;34.97;;;3.70;81.80;;;;;;4915091;29;20478;-71
2022/03/21 01:51:26;;;;;;;52.58;35.75;;;3.70;81.70;;;;;;4920012;29;20524;-71
2022/03/21 01:56:40;;;;;;;53.08;37.75;;;3.70;81.70;;;;;;4929174;29;20517;-71
2022/03/21 01:59:07;;;;;;;52.28;35.45;;;3.70;81.70;;;;;;4915957;29;20063;-71
2022/03/21 02:01:33;;;;;;;49.08;34.88;;;3.70;81.60;;;;;;4921206;29;20055;-71
2022/03/21 02:03:59;;;;;;;52.25;36.28;;;3.70;81.60;;;;;;4934191;29;20052;-70
2022/03/21 02:06:28;;;;;;;51.97;35.50;;;3.70;81.50;;;;;;4926042;29;20051;-70
2022/03/21 02:08:58;;;;;;;51.00;34.40;;;3.70;81.50;;;;;;4930720;29;20047;-70
2022/03/21 02:11:25;;;;;;;49.38;36.00;;;3.70;81.50;;;;;;4917691;29;20048;-70
2022/03/21 02:13:56;;;;;;;51.28;35.42;;;3.80;81.40;;;;;;4930269;29;20043;-71
2022/03/21 02:16:23;;;;;;;53.58;36.28;;;3.70;81.30;;;;;;4930071;29;20048;-71
2022/03/21 02:18:49;;;;;;;46.65;34.35;;;3.70;81.30;;;;;;4920853;29;20048;-71
2022/03/21 02:21:26;;;;;;;49.75;35.22;;;3.70;81.40;;;;;;4916026;29;20124;-71
2022/03/21 02:24:07;;;;;;;51.15;34.40;;;3.70;81.40;;;;;;4916296;29;20052;-71
2022/03/21 02:26:34;;;;;;;50.42;36.80;;;3.70;81.40;;;;;;4934127;29;20059;-71
2022/03/21 02:29:02;;;;;;;51.67;36.08;;;3.70;81.40;;;;;;4918890;29;20493;-71
2022/03/21 02:31:28;;;;;;;53.20;36.58;;;3.70;81.30;;;;;;4915336;29;20048;-70
2022/03/21 02:33:54;;;;;;;49.22;33.67;;;3.70;81.20;;;;;;4909906;29;20055;-71
2022/03/21 02:36:21;;;;;;;49.90;35.38;;;3.60;81.20;;;;;;4933650;29;20079;-71
2022/03/21 02:38:47;;;;;;;48.22;36.00;;;3.70;81.20;;;;;;4931582;29;20047;-71
2022/03/21 02:41:16;;;;;;;48.58;35.75;;;3.70;81.20;;;;;;4920767;29;20051;-71
2022/03/21 02:43:55;;;;;;;45.90;34.33;;;3.70;81.20;;;;;;4923991;29;20051;-71
2022/03/21 02:46:22;;;;;;;48.92;35.50;;;3.70;81.10;;;;;;4916481;29;20059;-71
2022/03/21 02:48:49;;;;;;;48.20;34.45;;;3.60;81.10;;;;;;4923323;29;20127;-71
2022/03/21 02:51:16;;;;;;;50.90;36.30;;;3.60;81.20;;;;;;4912464;29;20509;-70
2022/03/21 02:53:45;;;;;;;52.97;35.80;;;3.60;81.20;;;;;;4922165;29;20043;-71
2022/03/21 02:56:11;;;;;;;56.25;36.25;;;3.60;81.10;;;;;;4933030;29;20126;-71
2022/03/21 02:58:36;;;;;;;47.00;34.50;;;3.60;81.10;;;;;;4925762;29;20646;-71
2022/03/21 03:01:13;;;;;;;47.95;34.75;;;3.60;81.20;;;;;;4914384;29;20032;-71
2022/03/21 03:03:39;;;;;;;51.88;35.78;;;3.60;81.20;;;;;;4920594;29;20055;-71
2022/03/21 03:06:05;;;;;;;51.60;36.97;;;3.60;81.20;;;;;;4924697;29;20051;-71
2022/03/21 03:08:31;;;;;;;50.33;35.53;;;3.60;81.20;;;;;;4915987;29;20417;-71
2022/03/21 03:10:58;;;;;;;48.95;36.22;;;3.60;81.10;;;;;;4915078;29;20044;-71
2022/03/21 03:13:23;;;;;;;52.53;36.45;;;3.60;81.20;;;;;;4929275;29;20040;-71
2022/03/21 03:15:49;;;;;;;49.95;34.38;;;3.60;81.20;;;;;;4914593;29;20148;-70
2022/03/21 03:18:15;;;;;;;57.85;37.75;;;3.60;81.20;;;;;;4928484;29;20126;-71
2022/03/21 03:20:48;;;;;;;49.47;37.05;;;3.60;81.20;;;;;;4952127;28;20058;-70
2022/03/21 03:23:13;;;;;;;50.67;35.42;;;3.60;81.20;;;;;;4941554;29;20245;-71
2022/03/21 03:25:39;;;;;;;58.33;38.40;;;3.60;81.20;;;;;;4932615;29;20163;-71
2022/03/21 03:28:05;;;;;;;51.70;37.28;;;3.60;81.00;;;;;;4928208;29;20054;-70
2022/03/21 03:30:32;;;;;;;50.58;36.70;;;3.60;81.00;;;;;;4920322;29;20051;-70
2022/03/21 03:32:58;;;;;;;52.80;36.17;;;3.60;81.00;;;;;;4926121;29;20813;-71
2022/03/21 03:35:24;;;;;;;50.95;36.72;;;3.60;81.00;;;;;;4945397;29;20050;-70
2022/03/21 03:37:50;;;;;;;52.20;37.08;;;3.50;81.00;;;;;;4947498;29;20039;-70
2022/03/21 03:40:15;;;;;;;56.30;37.20;;;3.50;81.00;;;;;;4914021;29;20076;-70
2022/03/21 03:42:41;;;;;;;52.45;37.40;;;3.50;81.00;;;;;;4914208;29;20044;-70
2022/03/21 03:45:07;;;;;;;53.15;36.25;;;3.50;81.00;;;;;;4914327;29;20117;-70
2022/03/21 03:47:33;;;;;;;49.20;35.75;;;3.50;81.00;;;;;;4914391;29;20167;-70
2022/03/21 03:49:59;;;;;;;51.58;36.30;;;3.50;81.10;;;;;;4916621;29;20155;-70
2022/03/21 03:52:24;;;;;;;51.38;36.42;;;3.40;81.00;;;;;;4913735;29;20075;-71
2022/03/21 03:54:50;;;;;;;48.83;35.65;;;3.40;81.10;;;;;;4916332;29;20067;-71
2022/03/21 03:57:16;;;;;;;48.88;35.90;;;3.40;81.10;;;;;;4932514;29;20090;-70
2022/03/21 03:59:41;;;;;;;49.47;35.28;;;3.40;81.10;;;;;;4902443;29;20048;-70
2022/03/21 04:02:09;;;;;;;49.22;36.63;;;3.40;81.10;;;;;;4913637;29;20052;-70
2022/03/21 04:04:35;;;;;;;55.60;38.70;;;3.40;81.10;;;;;;4924307;29;20092;-70
2022/03/21 04:07:01;;;;;;;48.78;35.72;;;3.40;81.10;;;;;;4934303;29;20086;-70
2022/03/21 04:09:27;;;;;;;49.00;35.03;;;3.40;81.10;;;;;;4918102;29;20158;-70
2022/03/21 04:11:53;;;;;;;52.80;36.03;;;3.40;81.00;;;;;;4942193;29;20130;-71
2022/03/21 04:14:18;;;;;;;52.50;37.70;;;3.40;81.10;;;;;;4928628;29;20119;-71
2022/03/21 04:16:44;;;;;;;50.70;37.17;;;3.40;81.00;;;;;;4937043;29;20062;-71
2022/03/21 04:19:11;;;;;;;51.25;36.40;;;3.40;81.00;;;;;;4924950;29;20086;-70
2022/03/21 04:21:37;;;;;;;53.38;35.95;;;3.40;81.00;;;;;;4936266;29;20048;-71
2022/03/21 04:24:04;;;;;;;51.90;38.22;;;3.40;80.90;;;;;;4935379;29;20123;-70
2022/03/21 04:26:29;;;;;;;47.80;34.88;;;3.40;81.00;;;;;;4936748;29;20059;-70
2022/03/21 04:28:55;;;;;;;54.42;40.10;;;3.40;81.00;;;;;;4933952;29;20044;-70
2022/03/21 04:31:21;;;;;;;55.60;36.63;;;3.40;80.90;;;;;;4921330;29;20044;-71
2022/03/21 04:33:47;;;;;;;52.08;37.67;;;3.40;81.00;;;;;;4932248;29;20044;-70
2022/03/21 04:36:13;;;;;;;56.60;38.65;;;3.40;81.00;;;;;;4936115;29;20094;-70
2022/03/21 04:38:39;;;;;;;53.13;36.53;;;3.40;80.90;;;;;;4935562;29;20056;-70
2022/03/21 04:41:06;;;;;;;50.53;36.67;;;3.40;80.90;;;;;;4896777;29;20059;-70
2022/03/21 04:43:32;;;;;;;55.55;38.42;;;3.40;80.90;;;;;;4917001;29;20120;-70
2022/03/21 04:45:58;;;;;;;54.88;37.13;;;3.40;80.90;;;;;;4932325;29;20110;-70
2022/03/21 04:48:24;;;;;;;56.13;36.63;;;3.40;80.90;;;;;;4925299;29;20044;-70
2022/03/21 04:50:51;;;;;;;54.08;37.25;;;3.40;81.00;;;;;;4926913;29;20560;-70
2022/03/21 04:53:17;;;;;;;54.97;39.60;;;3.40;81.10;;;;;;4916764;29;20053;-70
2022/03/21 04:55:43;;;;;;;57.45;41.53;;;3.50;81.10;;;;;;4929347;29;20497;-70
2022/03/21 04:58:10;;;;;;;56.03;38.47;;;3.50;81.10;;;;;;4928372;29;20071;-70
2022/03/21 05:00:37;;;;;;;55.63;40.10;;;3.50;81.10;;;;;;4927158;29;20047;-70
2022/03/21 05:03:07;;;;;;;57.08;40.20;;;3.50;81.20;;;;;;4927500;29;20048;-70
2022/03/21 05:05:35;;;;;;;57.08;38.90;;;3.50;81.20;;;;;;4893999;29;20052;-70
2022/03/21 05:08:02;;;;;;;55.13;37.35;;;3.50;81.20;;;;;;4935170;29;20099;-70
2022/03/21 05:10:28;;;;;;;57.35;39.42;;;3.60;81.30;;;;;;4928487;29;20849;-69
2022/03/21 05:12:54;;;;;;;55.28;37.78;;;3.60;81.20;;;;;;4955408;29;20106;-70
2022/03/21 05:15:20;;;;;;;56.80;39.08;;;3.50;81.20;;;;;;4914143;29;20056;-70
2022/03/21 05:17:46;;;;;;;53.67;37.97;;;3.50;81.10;;;;;;4929760;29;20080;-70
2022/03/21 05:20:17;;;;;;;55.55;37.88;;;3.50;81.20;;;;;;4921584;29;20532;-70
2022/03/21 05:30:57;;;;;;;65.40;39.72;;;3.50;81.20;;;;;;4935625;29;20051;-70
2022/03/21 05:31:03;;;;;;;59.30;40.10;;;3.40;81.40;;;;;;4917380;29;20045;-70
2022/03/21 05:36:14;;;;;;;57.33;38.65;;;3.50;81.40;;;;;;4928681;29;20052;-69
2022/03/21 05:38:40;;;;;;;59.17;40.53;;;3.50;81.40;;;;;;4935208;29;20051;-69
2022/03/21 05:41:05;;;;;;;53.63;37.85;;;3.50;81.40;;;;;;4933427;29;20075;-70
2022/03/21 05:43:32;;;;;;;58.83;39.15;;;3.50;81.40;;;;;;4934034;29;20086;-70
2022/03/21 05:46:03;;;;;;;56.50;38.40;;;3.60;81.40;;;;;;4934505;29;20052;-69
2022/03/21 05:51:15;;;;;;;53.60;35.83;;;3.50;81.30;;;;;;4928313;29;20205;-70
2022/03/21 05:53:41;;;;;;;53.38;36.88;;;3.50;81.30;;;;;;4933251;29;20568;-70
2022/03/21 05:56:08;;;;;;;48.13;35.33;;;3.50;81.20;;;;;;4921276;29;20134;-70
2022/03/21 05:58:34;;;;;;;53.40;37.13;;;3.50;81.20;;;;;;4913434;29;20127;-70
2022/03/21 06:01:00;;;;;;;49.17;36.15;;;3.50;81.20;;;;;;4900802;29;20055;-71
2022/03/21 06:03:25;;;;;;;53.00;36.38;;;3.50;81.30;;;;;;4911145;29;20417;-69
2022/03/21 06:05:53;;;;;;;48.90;33.75;;;3.50;81.20;;;;;;4911756;29;20044;-69
2022/03/21 06:08:20;;;;;;;54.25;36.63;;;3.40;81.20;;;;;;4896538;29;20047;-69
2022/03/21 06:10:46;;;;;;;54.35;38.28;;;3.50;81.20;;;;;;4933264;29;20056;-71
2022/03/21 06:13:12;;;;;;;52.47;37.40;;;3.50;81.30;;;;;;4923382;29;20047;-70
2022/03/21 06:15:39;;;;;;;56.92;37.70;;;3.50;81.50;;;;;;4914017;29;20044;-70
2022/03/21 06:18:09;;;;;;;54.78;36.53;;;3.60;81.50;;;;;;4913394;29;20090;-71
2022/03/21 06:20:36;;;;;;;48.88;35.08;;;3.60;81.60;;;;;;4925454;29;20511;-71
2022/03/21 06:23:02;;;;;;;57.33;37.45;;;3.60;81.50;;;;;;4897602;29;20515;-70
2022/03/21 06:25:27;;;;;;;58.13;38.72;;;3.60;81.50;;;;;;4906258;29;20051;-70
2022/03/21 06:27:53;;;;;;;52.75;37.75;;;3.60;81.60;;;;;;4923924;29;20505;-71
2022/03/21 06:30:19;;;;;;;57.67;36.17;;;3.70;81.70;;;;;;4894836;29;20122;-70
2022/03/21 06:32:45;;;;;;;54.45;37.92;;;3.80;81.70;;;;;;4905471;29;20486;-71
2022/03/21 06:35:10;;;;;;;52.35;36.58;;;3.80;81.70;;;;;;4895310;29;20490;-70
2022/03/21 06:37:37;;;;;;;53.97;36.72;;;3.90;81.70;;;;;;4894390;29;20054;-71
2022/03/21 06:40:04;;;;;;;53.72;36.30;;;3.90;81.70;;;;;;4913405;29;20040;-70
2022/03/21 06:42:29;;;;;;;54.25;36.33;;;4.00;81.70;;;;;;4912940;29;20127;-71
2022/03/21 06:44:55;;;;;;;54.15;36.92;;;4.10;81.70;;;;;;4895172;29;20621;-70
2022/03/21 06:47:20;;;;;;;59.40;37.25;;;4.10;81.70;;;;;;4894776;29;20410;-70
2022/03/21 06:49:47;;;;;;;50.95;35.72;;;4.20;81.80;;;;;;4910473;29;20044;-70
2022/03/21 06:52:14;;;;;;;48.67;35.17;;;4.20;81.70;;;;;;4922214;29;20059;-70
2022/03/21 06:54:42;;;;;;;57.08;37.83;;;4.30;81.70;;;;;;4917332;29;20074;-70
2022/03/21 06:57:08;;;;;;;54.00;37.35;;;4.30;81.70;;;;;;4915389;29;20382;-71
2022/03/21 06:59:34;;;;;;;56.83;37.03;;;4.40;81.70;;;;;;4920951;29;20079;-71
2022/03/21 07:02:00;;;;;;;53.05;35.25;;;4.40;81.70;;;;;;4928263;29;20078;-70
2022/03/21 07:04:26;;;;;;;49.78;37.53;;;4.50;81.80;;;;;;4910857;29;20082;-71
2022/03/21 07:06:53;;;;;;;53.35;35.45;;;4.50;81.70;;;;;;4919516;29;20052;-72
2022/03/21 07:09:19;;;;;;;52.20;36.25;;;4.60;81.70;;;;;;4923945;29;20513;-71
2022/03/21 07:11:45;;;;;;;52.03;37.33;;;4.60;81.80;;;;;;4916950;29;20131;-70
2022/03/21 07:14:12;;;;;;;49.75;36.28;;;4.60;81.80;;;;;;4915909;29;20118;-71
2022/03/21 07:16:37;;;;;;;50.03;36.10;;;4.70;81.80;;;;;;4920824;29;20044;-71
2022/03/21 07:19:03;;;;;;;48.45;35.55;;;4.70;81.80;;;;;;4923947;29;20449;-71
2022/03/21 07:21:29;;;;;;;55.92;36.63;;;4.80;81.80;;;;;;4933554;29;20044;-70
2022/03/21 07:23:54;;;;;;;46.28;33.88;;;4.80;81.80;;;;;;4918001;29;20043;-71
2022/03/21 07:26:20;;;;;;;50.05;36.17;;;4.80;81.80;;;;;;4931151;29;20094;-71
2022/03/21 07:28:45;;;;;;;48.55;35.38;;;4.80;81.80;;;;;;4919882;29;20044;-70
2022/03/21 07:31:13;;;;;;;46.22;35.42;;;4.90;81.80;;;;;;4920701;29;20095;-71
2022/03/21 07:33:40;;;;;;;52.60;35.97;;;4.90;81.90;;;;;;4931178;29;20044;-72
2022/03/21 07:36:06;;;;;;;49.33;37.42;;;5.00;81.90;;;;;;4919466;29;20040;-72
2022/03/21 07:38:32;;;;;;;45.90;34.63;;;5.10;81.90;;;;;;4916386;29;20047;-72
2022/03/21 07:40:59;;;;;;;47.67;34.45;;;5.10;81.90;;;;;;4900227;29;20111;-72
2022/03/21 07:43:24;;;;;;;48.55;35.55;;;5.20;81.90;;;;;;4929949;29;20059;-73
2022/03/21 07:48:34;;;;;;;46.70;33.53;;;5.30;81.90;;;;;;4922603;29;20138;-72
2022/03/21 07:51:00;;;;;;;50.05;35.17;;;5.40;82.00;;;;;;4922742;29;20127;-71
2022/03/21 07:53:26;;;;;;;44.88;34.10;;;5.40;82.00;;;;;;4918199;29;20884;-72
2022/03/21 07:55:52;;;;;;;45.58;34.53;;;5.50;82.00;;;;;;4929726;29;20044;-72
2022/03/21 07:58:18;;;;;;;54.83;35.72;;;5.50;82.00;;;;;;4930589;29;20141;-72
2022/03/21 08:00:44;;;;;;;48.55;35.47;;;5.60;82.00;;;;;;4929254;29;20528;-72
2022/03/21 08:03:15;;;;;;;46.70;34.72;;;5.70;82.10;;;;;;4930840;29;20055;-72
2022/03/21 08:05:41;;;;;;;47.78;33.92;;;5.70;82.10;;;;;;4922228;29;20127;-72
2022/03/21 08:08:07;;;;;;;44.65;32.55;;;5.80;82.20;;;;;;4931678;29;20123;-72
2022/03/21 08:10:33;;;;;;;35.72;23.40;;;5.90;82.20;;;;;;4910384;29;20457;-71
2022/03/21 08:12:59;;;;;;;42.70;29.98;;;6.60;84.20;;;;;;4934155;29;20486;-70
2022/03/21 08:15:28;;;;;;;39.53;30.58;;;6.90;83.30;;;;;;4930843;29;20177;-70
2022/03/21 08:17:59;;;;;;;41.67;29.38;;;7.00;82.20;;;;;;4925258;29;20048;-70
2022/03/21 08:20:39;;;;;;;38.83;28.75;;;7.00;81.70;;;;;;4929363;29;20048;-69
2022/03/21 08:23:13;;;;;;;38.25;26.95;;;7.00;81.60;;;;;;4916352;29;20056;-70
2022/03/21 08:25:41;;;;;;;37.70;25.95;;;7.00;81.50;;;;;;4920697;29;20052;-69
2022/03/21 08:28:08;;;;;;;38.95;26.70;;;7.10;81.50;;;;;;4923550;29;20043;-69
2022/03/21 08:30:35;;;;;;;48.22;29.73;;;7.10;81.40;;;;;;4926633;29;20103;-68
2022/03/21 08:33:03;;;;;;;40.33;27.05;;;7.10;81.20;;;;;;4930683;29;20115;-68
2022/03/21 08:35:30;;;;;;;53.55;28.67;;;7.10;81.10;;;;;;4931553;29;20126;-69
2022/03/21 08:37:56;;;;;;;45.90;28.95;;;7.10;81.30;;;;;;4928261;29;20472;-69
2022/03/21 08:40:22;;;;;;;48.88;29.73;;;7.10;81.40;;;;;;4930771;29;20047;-70
2022/03/21 08:42:48;;;;;;;49.70;30.08;;;7.20;81.40;;;;;;4921666;29;20131;-72
2022/03/21 08:45:15;;;;;;;49.75;31.27;;;7.30;81.40;;;;;;4922112;29;20048;-67
2022/03/21 08:47:41;;;;;;;48.85;29.13;;;7.30;81.70;;;;;;4931337;29;20059;-72
2022/03/21 08:50:08;;;;;;;50.10;30.63;;;7.50;81.50;;;;;;4920172;29;20109;-72
2022/03/21 08:52:34;;;;;;;53.72;32.20;;;7.60;81.60;;;;;;4914382;29;20067;-70
2022/03/21 08:55:00;;;;;;;50.80;31.63;;;7.60;81.50;;;;;;4915614;29;20433;-73
2022/03/21 08:57:25;;;;;;;58.40;32.30;;;7.70;81.50;;;;;;4910498;29;20348;-72
2022/03/21 08:59:52;;;;;;;48.67;32.17;;;7.80;81.30;;;;;;4920475;29;20107;-72
2022/03/21 09:02:20;;;;;;;55.85;33.63;;;7.90;81.20;;;;;;4929328;29;20051;-74
2022/03/21 09:04:45;;;;;;;50.53;31.00;;;8.00;81.10;;;;;;4924206;29;20039;-74
2022/03/21 09:07:14;;;;;;;58.85;33.83;;;8.00;81.00;;;;;;4927449;29;20043;-74
2022/03/21 09:09:40;;;;;;;53.05;30.52;;;8.10;80.90;;;;;;4934386;29;20373;-74
2022/03/21 09:12:07;;;;;;;53.53;29.63;;;8.20;80.70;;;;;;4929397;29;20666;-72
2022/03/21 09:14:34;;;;;;;53.22;28.98;;;8.30;80.50;;;;;;4916321;29;20082;-73
2022/03/21 09:17:00;;;;;;;48.58;28.65;;;8.40;80.00;;;;;;4932387;29;20052;-71
2022/03/21 09:19:27;;;;;;;48.55;29.83;;;8.40;79.80;;;;;;4934678;29;20048;-75
2022/03/21 09:21:54;;;;;;;45.88;28.65;;;8.50;79.50;;;;;;4917268;29;20086;-76
2022/03/21 09:24:19;;;;;;;46.38;27.95;;;8.60;79.40;;;;;;4934266;29;20150;-75
2022/03/21 09:26:45;;;;;;;58.15;31.02;;;8.60;79.20;;;;;;4934040;29;20130;-75
2022/03/21 09:29:11;;;;;;;57.30;32.25;;;8.80;79.10;;;;;;4934084;29;20047;-75
2022/03/21 09:31:39;;;;;;;64.68;37.13;;;8.90;78.80;;;;;;4933875;29;20055;-74
2022/03/21 09:34:04;;;;;;;64.32;36.35;;;9.00;78.70;;;;;;4934214;29;20047;-75
2022/03/21 09:36:30;;;;;;;64.93;35.85;;;9.10;78.50;;;;;;4934190;29;20039;-75
2022/03/21 09:38:56;;;;;;;66.32;35.97;;;9.20;77.60;;;;;;4932144;29;20051;-75
2022/03/21 09:41:26;;;;;;;66.53;34.88;;;9.30;77.60;;;;;;4933579;29;20135;-75
2022/03/21 09:43:54;;;;;;;68.10;35.53;;;9.40;77.50;;;;;;4913680;29;20051;-72
2022/03/21 09:46:20;;;;;;;68.05;35.92;;;9.60;77.10;;;;;;4931589;29;20535;-73
2022/03/21 09:48:50;;;;;;;73.88;41.35;;;9.70;76.70;;;;;;4933516;29;20043;-73
2022/03/21 09:51:34;;;;;;;72.63;38.20;;;9.80;76.10;;;;;;4933144;29;20564;-72
2022/03/21 09:54:01;;;;;;;79.35;42.83;;;9.90;75.30;;;;;;4933241;29;20091;-71
2022/03/21 09:56:28;;;;;;;82.53;44.22;;;9.90;75.40;;;;;;4933619;29;20083;-72
2022/03/21 09:58:59;;;;;;;72.00;39.33;;;10.00;75.50;;;;;;4917230;29;20142;-71
2022/03/21 10:01:29;;;;;;;67.68;37.90;;;10.10;75.20;;;;;;4933955;29;20102;-73
2022/03/21 10:03:55;;;;;;;72.20;38.63;;;10.10;74.50;;;;;;4931723;29;20056;-70
2022/03/21 10:06:33;;;;;;;70.72;37.38;;;10.10;73.50;;;;;;4916132;29;20039;-70
2022/03/21 10:09:10;;;;;;;64.82;35.42;;;10.30;72.90;;;;;;4933831;29;20079;-72
2022/03/21 10:11:36;;;;;;;65.55;34.08;;;10.30;71.70;;;;;;4929061;29;20047;-70
2022/03/21 10:14:21;;;;;;;63.67;33.28;;;10.40;71.50;;;;;;4922623;29;20075;-71
2022/03/21 10:16:51;;;;;;;73.13;36.05;;;10.50;70.50;;;;;;4899942;29;20051;-71
2022/03/21 10:19:17;;;;;;;81.65;41.55;;;10.50;70.50;;;;;;4926885;29;20050;-71
2022/03/21 10:22:07;;;;;;;80.00;38.60;;;10.60;70.70;;;;;;4913818;29;20131;-72
2022/03/21 10:24:38;;;;;;;78.60;40.65;;;10.60;69.70;;;;;;4914335;29;20058;-71
2022/03/21 10:27:04;;;;;;;89.57;49.03;;;10.70;69.00;;;;;;4914282;29;20124;-72
2022/03/21 10:29:31;;;;;;;108.68;49.40;;;10.70;69.40;;;;;;4914036;29;20103;-72
2022/03/21 10:31:58;;;;;;;90.63;39.75;;;10.80;69.90;;;;;;4924234;29;20066;-72
2022/03/21 10:34:34;;;;;;;60.65;33.05;;;10.80;68.70;;;;;;4932215;29;20067;-72
2022/03/21 10:37:08;;;;;;;61.90;32.33;;;10.90;67.40;;;;;;4932534;29;20115;-71
2022/03/21 10:39:39;;;;;;;65.38;32.53;;;11.00;66.70;;;;;;4932630;29;20048;-72
2022/03/21 10:42:07;;;;;;;61.15;32.92;;;11.10;66.50;;;;;;4915838;29;20066;-72
2022/03/21 10:44:34;;;;;;;53.28;30.27;;;11.10;66.50;;;;;;4932940;29;20044;-71
2022/03/21 10:47:03;;;;;;;32.58;18.90;;;11.20;64.50;;;;;;4933039;29;20047;-71
2022/03/21 10:49:38;;;;;;;31.70;18.65;;;11.20;63.40;;;;;;4932076;29;20083;-72
2022/03/21 10:52:06;;;;;;;27.13;18.02;;;11.30;61.80;;;;;;4932645;29;20065;-72
2022/03/21 10:54:49;;;;;;;29.52;19.10;;;11.30;60.60;;;;;;4932451;29;20043;-72
2022/03/21 10:57:27;;;;;;;34.72;19.58;;;11.40;59.90;;;;;;4932396;29;20051;-72
2022/03/21 11:00:21;;;;;;;30.08;15.57;;;11.50;59.10;;;;;;4932546;29;20139;-71
2022/03/21 11:02:57;;;;;;;20.60;14.27;;;11.50;57.60;;;;;;4932056;29;21502;-66
2022/03/21 11:05:25;;;;;;;23.92;16.75;;;11.50;56.90;;;;;;4932898;29;20052;-64
2022/03/21 11:07:51;;;;;;;24.70;16.55;;;11.60;57.60;;;;;;4915758;29;20051;-65
2022/03/21 11:10:18;;;;;;;24.75;15.88;;;11.60;58.50;;;;;;4915381;29;20445;-66
2022/03/21 11:12:45;;;;;;;28.95;18.58;;;11.70;57.80;;;;;;4922727;29;20044;-66
2022/03/21 11:15:11;;;;;;;28.23;17.08;;;11.70;57.60;;;;;;4914245;29;20043;-66
2022/03/21 11:17:38;;;;;;;38.53;18.70;;;11.70;57.40;;;;;;4931574;29;20489;-65
2022/03/21 11:20:06;;;;;;;30.17;19.15;;;11.80;56.90;;;;;;4932665;29;20067;-65
2022/03/21 11:22:35;;;;;;;26.10;15.43;;;11.90;57.40;;;;;;4932217;29;20047;-65
2022/03/21 11:25:07;;;;;;;22.23;15.13;;;11.90;57.40;;;;;;4932437;29;20493;-65
2022/03/21 11:28:01;;;;;;;20.10;12.48;;;12.00;56.60;;;;;;4920997;29;20056;-66
2022/03/21 11:30:37;;;;;;;25.00;13.10;;;12.10;50.50;;;;;;4929935;29;20122;-67
2022/03/21 11:33:30;;;;;;;20.10;12.68;;;12.10;48.50;;;;;;4928009;29;20536;-68
2022/03/21 11:36:01;;;;;;;16.15;11.50;;;12.10;49.40;;;;;;4927773;29;20079;-65
2022/03/21 11:38:29;;;;;;;16.85;10.95;;;12.10;50.30;;;;;;4915586;29;20052;-66
2022/03/21 11:41:18;;;;;;;22.23;11.60;;;12.20;50.30;;;;;;4924254;29;20396;-66
2022/03/21 11:43:46;;;;;;;19.58;11.48;;;12.30;49.10;;;;;;4923468;29;20040;-67
2022/03/21 11:46:29;;;;;;;17.67;11.65;;;12.30;47.90;;;;;;4915959;29;20040;-67
2022/03/21 11:49:05;;;;;;;21.98;13.13;;;12.30;46.80;;;;;;4919455;29;20044;-67
2022/03/21 11:51:38;;;;;;;23.27;11.73;;;12.30;47.40;;;;;;4931096;29;20521;-67
2022/03/21 11:54:07;;;;;;;19.98;12.07;;;12.40;46.80;;;;;;4924167;29;20106;-67
2022/03/21 11:56:44;;;;;;;21.65;10.90;;;12.40;46.50;;;;;;4927812;29;20524;-67
2022/03/21 11:59:33;;;;;;;17.38;10.32;;;12.50;46.60;;;;;;4895608;29;20397;-67
2022/03/21 12:02:07;;;;;;;18.55;11.10;;;12.60;46.00;;;;;;4914058;29;20067;-67
2022/03/21 12:04:34;;;;;;;19.30;12.38;;;12.70;45.40;;;;;;4931937;29;20564;-67
2022/03/21 12:07:12;;;;;;;21.10;12.07;;;12.60;46.00;;;;;;4931591;29;20111;-66
2022/03/21 12:09:43;;;;;;;17.92;12.23;;;12.60;44.80;;;;;;4931569;29;20052;-66
2022/03/21 12:12:10;;;;;;;17.58;11.07;;;12.70;45.60;;;;;;4934286;28;20048;-67
2022/03/21 12:14:45;;;;;;;18.60;11.93;;;12.70;44.10;;;;;;4926896;29;20040;-67
2022/03/21 12:17:10;;;;;;;19.67;11.48;;;12.80;45.30;;;;;;4913007;29;20135;-67
2022/03/21 12:19:48;;;;;;;17.00;11.75;;;12.90;46.10;;;;;;4933009;29;20051;-66
2022/03/21 12:22:39;;;;;;;18.95;11.80;;;13.00;46.20;;;;;;4934497;29;20047;-65
2022/03/21 12:25:09;;;;;;;18.20;11.73;;;13.10;46.90;;;;;;4927008;29;20071;-66
2022/03/21 12:27:55;;;;;;;19.48;13.00;;;13.10;47.40;;;;;;4952700;28;20047;-66
2022/03/21 12:30:21;;;;;;;19.40;12.95;;;13.20;45.90;;;;;;4942817;29;20095;-68
2022/03/21 12:32:57;;;;;;;21.30;13.25;;;13.20;46.30;;;;;;4918531;29;20798;-66
2022/03/21 12:35:32;;;;;;;18.73;12.13;;;13.10;44.80;;;;;;4927216;29;20044;-66
2022/03/21 12:38:17;;;;;;;19.90;12.07;;;13.20;45.70;;;;;;4916348;29;20091;-68
2022/03/21 12:41:03;;;;;;;19.20;13.38;;;13.30;46.20;;;;;;4943467;28;20043;-67
2022/03/21 12:43:31;;;;;;;21.70;14.23;;;13.30;47.00;;;;;;4936710;28;20543;-68
2022/03/21 12:46:08;;;;;;;20.30;14.23;;;13.40;47.60;;;;;;4934973;29;20052;-67
2022/03/21 12:48:40;;;;;;;19.58;14.13;;;13.60;47.30;;;;;;4933984;29;20456;-68
2022/03/21 12:51:07;;;;;;;21.20;13.95;;;13.60;47.30;;;;;;4935027;29;20039;-69
2022/03/21 12:53:47;;;;;;;18.83;13.38;;;13.60;47.20;;;;;;4934365;29;20054;-69
2022/03/21 12:56:16;;;;;;;20.33;15.02;;;13.60;46.60;;;;;;4907823;29;20485;-69
2022/03/21 12:58:46;;;;;;;19.77;14.02;;;13.60;47.10;;;;;;4905570;29;20092;-67